Uniontown, PA (15401)

3:36 PM EDT on July 25, 2016 (GMT -0400)
Nick's Weather | | Change Station
Active Advisory: Severe Thunderstorm Watch

Elev 1060 ft 39.90 °N, 79.74 °W | Updated 18 seconds ago

Mostly Cloudy
Mostly Cloudy
87.8 °F
Feels Like 98 °F
N
10.0
Wind Variable Wind from SSE
Gusts 14.0 mph

Today
High -- | Low -- °F
--% Chance of Precip.
Yesterday
High -- | Low -- °F
Precip. -- in
Pressure 29.96 in
Visibility 10.0 miles
Clouds Scattered Clouds 4400 ft
Mostly Cloudy 15000 ft
Heat Index 98 °F
Dew Point 75 °F
Humidity 66%
Rainfall 0.11 in
Snow Depth Not available.
6:11 AM 8:38 PM
Waning Gibbous, 63% visible
METAR KMGW 251853Z 19008KT 10SM SCT044 BKN150 29/19 A2999 RMK AO2 LTG DSNT E-S SLP144 T02890189
Pressure 29.96 in
Visibility 10.0 miles
Clouds Scattered Clouds 4400 ft
Mostly Cloudy 15000 ft
Heat Index 98 °F
Dew Point 75 °F
Humidity 66%
Rainfall 0.11 in
Snow Depth Not available.
6:11 AM 8:38 PM
Waning Gibbous, 63% visible
METAR KMGW 251853Z 19008KT 10SM SCT044 BKN150 29/19 A2999 RMK AO2 LTG DSNT E-S SLP144 T02890189
Record highs are possible for parts of the Northeast Monday and Tuesday, as parts of the central U.S. take a little breather from the worst of summer's dog day heat.

Expansive high pressure in the upper atmosphere will focus on parts of the East and West this week, sending heat indices well into the triple digits from the Mid-Atlantic states into the South.

10-Day Weather Forecast

Almanac

Astronomy

Jul. 25, 2016 Rise Set
Actual Time
Civil Twilight
Nautical Twilight
Astronomical Twilight
Moon
Length of Visible Light
Length of Day
Tomorrow will be .
, % of the Moon is Illuminated

Today's Extremes

State Highs State Lows

Community

WunderPhotos

Upload Photos

1,927,388 photos uploaded!

WunderBlog® & News

Nearby

Air Quality

  Air Quality AQ Index Pollutant
Not available.

Snow Depth

Station Depth Elevation

Earthquake Activity

City Distance Mag. Time & Date
Minimum magnitude displayed is 2.5.

Coastal Water Temperatures

Place Temperature

Stations

Nearby Weather Stations

Station Location Temp. Windchill Dew Point Humidity Wind Precip. Elev Updated Type
                   

Watches & Warnings

Severe Thunderstorm Watch
Issued: 3:23 PM EDT Jul. 25, 2016 – National Weather Service

Severe Thunderstorm Watch 415 remains in effect until 800 PM EDT

PA
. Pennsylvania counties included are

Adams Armstrong Bedford
Berks Blair Bradford
Bucks Cambria Cameron
Carbon centre Chester
Clarion Clearfield Clinton
Columbia Cumberland Dauphin
Delaware Elk Fayette
Forest Franklin Fulton
Huntingdon Indiana Jefferson
Juniata Lackawanna Lancaster
Lebanon Lehigh Luzerne
Lycoming McKean Mifflin
Monroe Montgomery Montour
Northampton Northumberland Perry
Philadelphia Pike Potter
Schuylkill Snyder Somerset
Sullivan Susquehanna Tioga
Union Warren Wayne
Westmoreland Wyoming York